Time;durP1;ratioP1;P1;durP2;ratioP2;P2;SDS_P1;SDS_P2;PMS_P1;PMS_P2;Temp;Humidity;BMP_temperature;BMP_pressure;BME280_temperature;BME280_humidity;BME280_pressure;Samples;Min_cycle;Max_cycle;Signal;HPM_P1;HPM_P2
2022/01/15 00:01:03;;;;;;;;;114.00;101.67;;;;;5.83;62.54;102725.03;6267053;22;47650;-82
2022/01/15 00:07:05;;;;;;;;;112.00;102.67;;;;;5.96;62.66;102742.22;6246001;22;45452;-83
2022/01/15 00:10:03;;;;;;;;;132.00;121.33;;;;;6.05;62.53;102755.75;6245868;22;45308;-84
2022/01/15 00:12:41;;;;;;;;;134.67;123.00;;;;;6.00;62.34;102753.75;6243812;22;47175;-84
2022/01/15 00:15:26;;;;;;;;;;;;;;;;;;;;;
2022/01/15 00:18:05;;;;;;;;;139.33;121.00;;;;;5.73;62.36;102725.44;6244853;22;69005;-83
2022/01/15 00:20:36;;;;;;;;;122.00;111.33;;;;;5.81;62.50;102739.75;6246128;22;45236;-83
2022/01/15 00:24:21;;;;;;;;;109.00;99.50;;;;;5.81;62.29;102746.69;6269757;22;47938;-83
2022/01/15 00:26:47;;;;;;;;;112.67;98.67;;;;;5.60;62.52;102723.94;6239746;22;45421;-83
2022/01/15 00:29:41;;;;;;;;;108.00;96.33;;;;;5.70;62.44;102748.81;6243975;22;45409;-83
2022/01/15 00:32:46;;;;;;;;;113.00;102.67;;;;;5.59;62.56;102737.81;6242899;22;45458;-83
2022/01/15 00:35:26;;;;;;;;;123.33;113.67;;;;;5.47;62.70;102717.19;6241513;22;45429;-83
2022/01/15 00:37:57;;;;;;;;;125.33;107.00;;;;;5.39;62.86;102709.81;6264146;22;45457;-83
2022/01/15 00:40:48;;;;;;;;;;;;;;;;;;;;;
2022/01/15 00:43:24;;;;;;;;;115.00;104.67;;;;;5.45;62.92;102736.22;6242981;22;73019;-83
2022/01/15 00:56:48;;;;;;;;;;;;;;;;;;;;;
2022/01/15 01:00:03;;;;;;;;;100.33;89.67;;;;;5.35;63.18;102724.44;6228991;22;74085;-86
2022/01/15 01:03:22;;;;;;;;;99.33;89.00;;;;;5.08;63.42;102679.59;6197468;23;45285;-83
2022/01/15 01:24:00;;;;;;;;;;;;;;;;;;;;;
2022/01/15 01:26:48;;;;;;;;;114.67;102.00;;;;;5.15;63.50;102670.34;6224429;22;72059;-83
2022/01/15 01:32:30;;;;;;;;;110.67;101.67;;;;;5.02;63.46;102672.31;6249244;22;45374;-82
2022/01/15 01:35:10;;;;;;;;;101.33;96.00;;;;;5.00;63.79;102660.03;6247020;22;46739;-83
2022/01/15 01:37:48;;;;;;;;;103.67;93.00;;;;;5.13;63.66;102692.84;6271954;22;45451;-83
2022/01/15 01:40:23;;;;;;;;;99.00;84.33;;;;;4.91;63.78;102662.19;6249225;22;45379;-83
2022/01/15 01:43:15;;;;;;;;;103.67;93.33;;;;;5.04;64.06;102681.13;6272597;22;45848;-83
2022/01/15 01:48:39;;;;;;;;;98.67;89.00;;;;;4.94;64.16;102676.25;6240849;22;45389;-83
2022/01/15 01:51:21;;;;;;;;;;;;;;;;;;;;;
2022/01/15 01:54:00;;;;;;;;;;;;;;;;;;;;;
2022/01/15 01:56:50;;;;;;;;;102.00;86.67;;;;;4.81;63.98;102653.91;6246840;22;75399;-83
2022/01/15 01:59:33;;;;;;;;;;;;;;;;;;;;;
2022/01/15 02:02:17;;;;;;;;;94.33;78.67;;;;;4.71;64.06;102628.16;6247531;22;68018;-83
2022/01/15 02:07:40;;;;;;;;;96.33;82.67;;;;;4.78;64.42;102643.28;6247764;22;45365;-83
2022/01/15 02:10:16;;;;;;;;;99.67;85.00;;;;;4.84;64.26;102647.94;6247861;22;45319;-83
2022/01/15 02:12:54;;;;;;;;;102.33;87.67;;;;;4.84;64.74;102651.44;6247725;22;45158;-84
2022/01/15 02:15:46;;;;;;;;;94.67;76.67;;;;;4.70;64.59;102625.44;6271718;22;45399;-83
2022/01/15 02:18:34;;;;;;;;;95.00;77.00;;;;;4.86;64.69;102665.47;6247081;22;46898;-83
2022/01/15 02:23:51;;;;;;;;;96.67;77.67;;;;;4.76;64.41;102644.94;6247788;22;45289;-83
2022/01/15 02:26:38;;;;;;;;;;;;;;;;;;;;;
2022/01/15 02:29:07;;;;;;;;;93.00;79.00;;;;;4.68;64.42;102630.63;6247131;22;75474;-83
2022/01/15 02:31:50;;;;;;;;;;;;;;;;;;;;;
2022/01/15 02:34:20;;;;;;;;;91.50;70.25;;;;;4.60;64.50;102609.34;6247135;22;67540;-83
2022/01/15 02:37:14;;;;;;;;;98.33;82.33;;;;;4.63;64.43;102606.00;6246781;22;45360;-83
2022/01/15 02:40:01;;;;;;;;;95.67;78.00;;;;;4.77;64.24;102635.41;6275074;22;45512;-84
2022/01/15 02:42:31;;;;;;;;;100.67;79.67;;;;;4.53;64.22;102595.91;6246227;22;45338;-83
2022/01/15 02:45:04;;;;;;;;;97.33;81.67;;;;;4.53;64.63;102608.97;6248739;22;45473;-83
2022/01/15 02:50:25;;;;;;;;;95.00;76.67;;;;;4.53;64.39;102606.34;6248243;22;45409;-82
2022/01/15 02:53:14;;;;;;;;;;;;;;;;;;;;;
2022/01/15 02:55:50;;;;;;;;;101.00;87.33;;;;;4.54;64.96;102622.06;6246757;22;70512;-83
2022/01/15 02:58:32;;;;;;;;;96.67;80.67;;;;;4.54;64.74;102615.94;6272039;22;45394;-83
2022/01/15 03:01:02;;;;;;;;;99.33;87.00;;;;;4.57;65.21;102622.25;6270953;22;47427;-83
2022/01/15 03:03:41;;;;;;;;;100.33;79.00;;;;;4.55;65.20;102613.44;6248771;22;45444;-83
2022/01/15 03:06:27;;;;;;;;;106.67;91.33;;;;;4.39;64.89;102593.50;6248403;22;45280;-83
2022/01/15 03:08:57;;;;;;;;;97.67;82.33;;;;;4.39;64.89;102584.78;6272306;22;45406;-83
2022/01/15 03:11:34;;;;;;;;;102.33;90.33;;;;;4.55;65.05;102608.22;6247722;22;45795;-83
2022/01/15 03:14:05;;;;;;;;;103.00;89.33;;;;;4.54;65.08;102615.94;6248755;22;45449;-83
2022/01/15 03:16:35;;;;;;;;;98.33;82.67;;;;;4.33;65.03;102587.06;6248926;22;45383;-83
2022/01/15 03:19:19;;;;;;;;;104.33;91.67;;;;;4.52;64.89;102621.09;6245740;22;46133;-83
2022/01/15 03:21:44;;;;;;;;;102.67;88.00;;;;;4.36;64.88;102589.84;6272556;22;46901;-83
2022/01/15 03:24:19;;;;;;;;;98.00;83.00;;;;;4.52;65.07;102612.41;6248240;22;45201;-83
2022/01/15 03:26:45;;;;;;;;;101.33;89.67;;;;;4.50;65.35;102603.59;6248728;22;45802;-83
2022/01/15 03:29:19;;;;;;;;;106.67;94.67;;;;;4.40;65.45;102595.28;6247748;22;45422;-83
2022/01/15 03:31:57;;;;;;;;;98.00;81.67;;;;;4.40;65.86;102590.06;6246193;22;47104;-83
2022/01/15 03:34:30;;;;;;;;;111.33;94.00;;;;;4.43;65.48;102598.03;6248286;22;45234;-83
2022/01/15 03:37:02;;;;;;;;;104.00;91.67;;;;;4.27;65.33;102563.28;6248047;22;45153;-83
2022/01/15 03:39:38;;;;;;;;;106.33;96.00;;;;;4.24;65.24;102560.53;6245741;22;45474;-83
2022/01/15 03:42:17;;;;;;;;;105.00;88.33;;;;;4.31;65.29;102568.75;6246559;22;47260;-83
2022/01/15 03:44:49;;;;;;;;;106.00;92.33;;;;;4.34;65.15;102570.63;6271869;22;45223;-83
2022/01/15 03:47:34;;;;;;;;;;;;;;;;;;;;;
2022/01/15 03:50:03;;;;;;;;;106.00;96.00;;;;;4.32;65.42;102559.22;6246971;22;71714;-83
2022/01/15 03:52:33;;;;;;;;;103.00;91.33;;;;;4.24;65.24;102537.06;6270929;22;48205;-83
2022/01/15 03:55:11;;;;;;;;;104.67;88.33;;;;;4.23;65.27;102530.97;6245526;22;45295;-83
2022/01/15 03:57:40;;;;;;;;;108.33;94.67;;;;;4.17;65.30;102517.59;6246155;22;45275;-84
2022/01/15 04:00:21;;;;;;;;;102.67;90.33;;;;;4.45;65.14;102561.63;6271866;22;45479;-83
2022/01/15 04:02:51;;;;;;;;;108.67;88.67;;;;;4.41;65.29;102550.16;6271581;22;46913;-83
2022/01/15 04:05:25;;;;;;;;;102.00;86.67;;;;;4.25;65.34;102525.81;6245875;22;45441;-83
2022/01/15 04:07:53;;;;;;;;;102.67;90.00;;;;;4.39;64.92;102546.56;6271555;22;45381;-83
2022/01/15 04:10:33;;;;;;;;;98.33;85.00;;;;;4.21;65.22;102514.34;6271615;22;45138;-83
2022/01/15 04:13:08;;;;;;;;;99.67;83.67;;;;;4.43;64.94;102553.72;6271515;22;47272;-83
2022/01/15 04:15:52;;;;;;;;;98.33;86.33;;;;;4.42;64.89;102551.94;6246029;22;45502;-83
2022/01/15 04:18:24;;;;;;;;;97.67;80.00;;;;;4.38;64.88;102536.03;6245803;22;45135;-83
2022/01/15 04:21:10;;;;;;;;;104.00;87.33;;;;;4.19;65.56;102511.66;6272682;22;45299;-83
2022/01/15 04:23:44;;;;;;;;;102.67;87.67;;;;;4.30;65.37;102525.22;6247169;22;46964;-83
2022/01/15 04:26:13;;;;;;;;;101.33;85.33;;;;;4.25;65.42;102510.16;6246965;22;45182;-83
2022/01/15 04:29:04;;;;;;;;;89.67;68.00;;;;;4.32;65.26;102525.31;6249793;22;45423;-83
2022/01/15 04:31:35;;;;;;;;;102.00;86.67;;;;;4.39;65.24;102530.03;6248187;22;45500;-83
2022/01/15 04:34:01;;;;;;;;;98.67;85.00;;;;;4.41;65.38;102517.94;6245698;22;47659;-83
2022/01/15 04:37:03;;;;;;;;;97.00;80.67;;;;;4.31;65.26;102503.56;6247560;22;45338;-83
2022/01/15 04:39:42;;;;;;;;;96.67;81.33;;;;;4.31;65.46;102505.28;6271938;22;45468;-83
2022/01/15 04:42:31;;;;;;;;;96.67;79.33;;;;;4.26;65.19;102502.44;6248344;22;45314;-83
2022/01/15 04:45:02;;;;;;;;;100.00;80.00;;;;;4.36;65.47;102525.56;6248671;22;46641;-83
2022/01/15 04:47:32;;;;;;;;;95.67;81.67;;;;;4.40;65.62;102531.81;6245916;22;45209;-83
2022/01/15 04:50:04;;;;;;;;;93.00;77.33;;;;;4.19;65.72;102498.63;6248760;22;45282;-83
2022/01/15 04:52:40;;;;;;;;;101.00;83.33;;;;;4.35;65.26;102517.66;6246163;22;45426;-83
2022/01/15 04:55:43;;;;;;;;;98.67;84.33;;;;;4.29;65.54;102514.75;6248465;22;45166;-82
2022/01/15 04:58:27;;;;;;;;;;;;;;;;;;;;;
2022/01/15 05:01:03;;;;;;;;;97.33;80.00;;;;;4.37;65.94;102532.53;6247351;22;68872;-82
2022/01/15 05:03:37;;;;;;;;;96.00;80.00;;;;;4.21;65.79;102509.13;6245948;22;45588;-82
2022/01/15 05:06:15;;;;;;;;;96.00;75.00;;;;;4.20;65.76;102505.63;6246125;22;48387;-82
2022/01/15 05:08:44;;;;;;;;;101.33;87.67;;;;;4.36;65.87;102535.09;6272184;22;45229;-82
2022/01/15 05:11:43;;;;;;;;;100.67;83.33;;;;;4.29;66.09;102514.75;6248082;22;45326;-82
2022/01/15 05:14:18;;;;;;;;;104.00;94.33;;;;;4.12;66.29;102487.84;6248296;22;45401;-82
2022/01/15 05:16:44;;;;;;;;;104.67;92.33;;;;;4.19;66.07;102501.22;6272070;22;47497;-82
2022/01/15 05:19:24;;;;;;;;;97.33;81.33;;;;;4.12;65.90;102496.53;6246319;22;45172;-83
2022/01/15 05:21:55;;;;;;;;;105.00;89.67;;;;;4.17;66.11;102496.75;6246340;22;45367;-83
2022/01/15 05:24:29;;;;;;;;;100.00;84.67;;;;;4.16;65.80;102503.69;6273272;22;45425;-82
2022/01/15 05:27:07;;;;;;;;;96.50;76.25;;;;;4.05;65.64;102489.22;6249454;22;46355;-82
2022/01/15 05:29:47;;;;;;;;;;;;;;;;;;;;;
2022/01/15 05:32:23;;;;;;;;;93.50;71.00;;;;;3.88;65.46;102477.94;6247489;22;68030;-83
2022/01/15 05:34:57;;;;;;;;;91.25;71.50;;;;;4.03;65.74;102516.91;6249033;22;45284;-83
2022/01/15 05:37:30;;;;;;;;;95.00;76.75;;;;;3.89;65.95;102492.75;6248191;22;46262;-83
2022/01/15 05:39:56;;;;;;;;;88.25;69.00;;;;;3.96;65.50;102514.81;6245989;22;45405;-83
2022/01/15 05:42:30;;;;;;;;;91.50;72.25;;;;;3.78;65.48;102493.91;6246873;22;45334;-84
2022/01/15 05:45:06;;;;;;;;;94.25;71.00;;;;;3.72;66.09;102498.78;6246026;22;45478;-84
2022/01/15 05:47:35;;;;;;;;;90.00;69.00;;;;;3.71;65.66;102510.91;6271077;22;46677;-84
2022/01/15 05:50:03;;;;;;;;;98.00;79.67;;;;;3.75;65.73;102519.78;6246131;22;45133;-84
2022/01/15 05:52:50;;;;;;;;;;;;;;;;;;;;;
2022/01/15 05:55:28;;;;;;;;;93.50;74.25;;;;;3.69;65.91;102528.19;6246819;22;72893;-83
2022/01/15 05:58:07;;;;;;;;;;;;;;;;;;;;;
2022/01/15 06:00:44;;;;;;;;;82.75;65.75;;;;;3.58;66.51;102525.78;6247083;22;72113;-83
2022/01/15 06:03:27;;;;;;;;;90.25;70.50;;;;;3.51;66.53;102508.97;6247003;22;45394;-83
2022/01/15 06:05:55;;;;;;;;;94.00;76.25;;;;;3.65;66.32;102540.94;6248244;22;45217;-83
2022/01/15 06:08:46;;;;;;;;;;;;;;;;;;;;;
2022/01/15 06:11:30;;;;;;;;;93.67;75.33;;;;;3.54;66.79;102517.81;6251584;22;72342;-83
2022/01/15 06:14:04;;;;;;;;;92.50;72.75;;;;;3.60;66.66;102529.38;6278140;22;45259;-83
2022/01/15 06:16:36;;;;;;;;;93.33;78.33;;;;;3.47;66.39;102507.88;6251231;22;45189;-83
2022/01/15 06:19:02;;;;;;;;;93.00;73.50;;;;;3.53;66.87;102525.56;6251418;22;45386;-82
2022/01/15 06:21:47;;;;;;;;;;;;;;;;;;;;;
2022/01/15 06:24:28;;;;;;;;;91.50;72.25;;;;;3.55;66.74;102529.13;6261109;22;69000;-81
2022/01/15 06:27:11;;;;;;;;;97.67;78.33;;;;;3.51;66.69;102519.38;6269259;22;44634;-81
2022/01/15 06:29:57;;;;;;;;;;;;;;;;;;;;;
2022/01/15 06:32:35;;;;;;;;;97.67;76.67;;;;;3.33;67.14;102476.72;6268929;22;72406;-81
2022/01/15 06:35:13;;;;;;;;;94.33;71.00;;;;;3.46;67.06;102505.22;6294580;22;44680;-82
2022/01/15 06:37:50;;;;;;;;;94.67;73.67;;;;;3.45;67.10;102511.25;6265574;22;45276;-81
2022/01/15 06:40:29;;;;;;;;;95.00;78.67;;;;;3.45;66.65;102514.75;6268050;22;46994;-82
2022/01/15 06:43:17;;;;;;;;;;;;;;;;;;;;;
2022/01/15 06:45:46;;;;;;;;;94.00;74.75;;;;;3.51;66.68;102515.06;6253105;22;68704;-84
2022/01/15 06:48:33;;;;;;;;;;;;;;;;;;;;;
2022/01/15 06:51:07;;;;;;;;;98.00;76.33;;;;;3.29;67.03;102475.69;6251255;22;74635;-82
2022/01/15 06:53:32;;;;;;;;;96.00;76.33;;;;;3.29;66.68;102473.09;6249254;22;45955;-83
2022/01/15 06:56:03;;;;;;;;;95.67;80.00;;;;;3.24;66.65;102459.81;6274740;22;45180;-83
2022/01/15 06:58:36;;;;;;;;;94.67;74.00;;;;;3.46;66.67;102500.91;6246861;22;45481;-83
2022/01/15 07:01:09;;;;;;;;;93.33;74.67;;;;;3.33;66.68;102472.41;6247550;22;45592;-83
2022/01/15 07:03:44;;;;;;;;;97.75;77.75;;;;;3.50;66.55;102499.34;6247600;22;45370;-83
2022/01/15 07:06:21;;;;;;;;;95.25;73.75;;;;;3.25;66.96;102447.69;6246495;22;45400;-83
2022/01/15 07:09:11;;;;;;;;;69.00;54.25;;;;;3.27;66.41;102453.88;6271179;22;45503;-83
2022/01/15 07:11:43;;;;;;;;;90.50;72.50;;;;;3.31;66.95;102463.63;6271155;22;47077;-83
2022/01/15 07:14:13;;;;;;;;;91.67;71.33;;;;;3.37;66.62;102469.19;6245962;22;45692;-83
2022/01/15 07:16:52;;;;;;;;;93.00;73.33;;;;;3.47;66.84;102494.88;6247966;22;45365;-84
2022/01/15 07:19:31;;;;;;;;;;;;;;;;;;;;;
2022/01/15 07:22:04;;;;;;;;;98.50;81.75;;;;;3.31;66.53;102472.34;6246033;22;74598;-80
2022/01/15 07:24:35;;;;;;;;;94.00;75.00;;;;;3.29;66.59;102465.28;6270368;22;45256;-81
2022/01/15 07:27:05;;;;;;;;;96.33;83.00;;;;;3.44;67.18;102484.28;6271045;22;45449;-80
2022/01/15 07:29:38;;;;;;;;;101.33;81.67;;;;;3.38;67.02;102481.38;6245613;22;45419;-79
2022/01/15 07:32:05;;;;;;;;;92.00;75.00;;;;;3.45;66.80;102486.09;6245157;22;46917;-81
2022/01/15 07:34:40;;;;;;;;;97.50;78.50;;;;;3.36;67.15;102466.47;6245141;22;45260;-81
2022/01/15 07:37:07;;;;;;;;;99.75;81.50;;;;;3.44;67.11;102473.00;6271213;22;45192;-81
2022/01/15 07:39:38;;;;;;;;;103.00;83.00;;;;;3.45;67.03;102480.00;6246140;22;45550;-80
2022/01/15 07:42:14;;;;;;;;;99.00;80.67;;;;;3.33;67.43;102449.00;6270416;22;45358;-80
2022/01/15 07:44:41;;;;;;;;;94.75;73.75;;;;;3.29;67.20;102447.94;6245000;22;45301;-80
2022/01/15 07:47:22;;;;;;;;;107.33;91.67;;;;;3.47;67.09;102480.97;6270942;22;45182;-80
2022/01/15 07:49:58;;;;;;;;;100.00;76.25;;;;;3.43;66.90;102466.00;6246557;22;45310;-80
2022/01/15 07:52:28;;;;;;;;;102.67;81.67;;;;;3.50;67.39;102484.66;6246637;22;46539;-80
2022/01/15 07:55:05;;;;;;;;;107.67;87.33;;;;;3.53;67.39;102479.59;6269902;22;45149;-81
2022/01/15 07:57:43;;;;;;;;;99.67;78.00;;;;;3.53;66.95;102474.38;6270620;22;45314;-82
2022/01/15 08:00:26;;;;;;;;;100.75;84.25;;;;;3.41;66.84;102449.41;6246769;22;45327;-82
2022/01/15 08:02:54;;;;;;;;;98.00;79.75;;;;;3.58;67.18;102478.94;6244589;22;47169;-82
2022/01/15 08:05:31;;;;;;;;;97.33;78.33;;;;;3.44;67.15;102452.16;6244164;22;45253;-82
2022/01/15 09:58:42;;;;;;;;;;;;;;;;;;;;;
2022/01/15 10:02:03;;;;;;;;;106.00;92.67;;;;;4.55;67.62;102471.72;6117701;23;74002;-89
2022/01/15 10:48:12;;;;;;;;;118.67;105.67;;;;;6.35;65.20;102442.38;5968236;23;44670;-86
2022/01/15 10:51:22;;;;;;;;;;;;;;;;;;;;;
2022/01/15 11:21:13;;;;;;;;;105.00;98.00;;;;;7.90;61.90;102408.00;6021190;23;45286;-90
2022/01/15 11:31:16;;;;;;;;;;;;;;;;;;;;;
2022/01/15 13:21:50;;;;;;;;;;;;;;;;;;;;;
2022/01/15 16:16:00;;;;;;;;;70.75;55.50;;;;;9.31;49.85;102154.03;6241830;22;45425;-87
2022/01/15 16:23:18;;;;;;;;;71.75;58.25;;;;;8.89;50.35;102149.47;6086126;23;45409;-86
2022/01/15 16:25:54;;;;;;;;;;;;;;;;;;;;;
2022/01/15 16:32:31;;;;;;;;;;;;;;;;;;;;;
2022/01/15 16:36:06;;;;;;;;;;;;;;;;;;;;;
2022/01/15 16:50:09;;;;;;;;;;;;;;;;;;;;;
2022/01/15 16:56:10;;;;;;;;;65.00;51.25;;;;;7.56;52.30;102170.97;6218447;22;45527;-88
2022/01/15 16:58:40;;;;;;;;;63.25;52.25;;;;;7.43;52.35;102156.63;6247069;22;45357;-87
2022/01/15 17:01:22;;;;;;;;;66.25;51.25;;;;;7.49;52.51;102177.75;6276076;22;45525;-87
2022/01/15 17:04:01;;;;;;;;;61.50;50.50;;;;;7.35;52.36;102163.34;6246455;22;47382;-89
2022/01/15 17:10:09;;;;;;;;;;;;;;;;;;;;;
2022/01/15 17:12:36;;;;;;;;;67.25;53.00;;;;;7.28;53.23;102171.81;6252189;22;45355;-87
2022/01/15 17:15:07;;;;;;;;;60.25;49.00;;;;;7.23;53.48;102166.44;6272833;22;46967;-86
2022/01/15 17:17:38;;;;;;;;;70.50;54.00;;;;;7.23;53.47;102176.03;6250537;22;45547;-87
2022/01/15 17:23:32;;;;;;;;;76.00;53.50;;;;;7.26;54.02;102197.94;6156059;22;45564;-87
2022/01/15 17:26:00;;;;;;;;;70.25;54.25;;;;;7.16;54.24;102180.16;6244711;22;48091;-87
2022/01/15 17:28:36;;;;;;;;;69.75;55.50;;;;;7.02;54.04;102163.09;6251552;22;45363;-87
2022/01/15 17:31:09;;;;;;;;;68.25;53.00;;;;;7.12;54.04;102204.47;6247744;22;45413;-88
2022/01/15 17:33:49;;;;;;;;;72.00;55.50;;;;;6.84;54.59;102176.44;6276461;22;45300;-88
2022/01/15 17:36:15;;;;;;;;;71.00;56.25;;;;;6.87;54.76;102196.59;6249667;22;47026;-87
2022/01/15 17:38:49;;;;;;;;;74.50;58.25;;;;;6.81;54.83;102212.97;6275862;22;45284;-88
2022/01/15 17:44:44;;;;;;;;;75.00;57.25;;;;;6.34;55.25;102189.50;6240819;22;45679;-89
2022/01/15 17:47:14;;;;;;;;;70.50;53.75;;;;;6.29;55.64;102203.25;6273979;22;46688;-87
2022/01/15 17:50:09;;;;;;;;;61.00;47.75;;;;;6.03;55.82;102195.31;6274739;22;45654;-89
2022/01/15 17:52:57;;;;;;;;;70.00;54.50;;;;;6.08;56.18;102219.91;6249286;22;45219;-89
2022/01/15 17:55:27;;;;;;;;;64.50;48.50;;;;;5.91;56.37;102211.38;6273126;22;45279;-87
2022/01/15 18:01:14;;;;;;;;;64.25;50.25;;;;;5.65;56.51;102207.72;6259643;22;45311;-88
2022/01/15 18:03:50;;;;;;;;;64.50;53.00;;;;;5.60;56.77;102221.44;6276661;22;45462;-86
2022/01/15 18:06:16;;;;;;;;;61.50;48.75;;;;;5.49;57.16;102215.78;6244448;22;45466;-86
2022/01/15 18:08:58;;;;;;;;;66.50;51.50;;;;;5.47;57.42;102228.75;6246542;22;46818;-86
2022/01/15 18:11:37;;;;;;;;;64.00;50.25;;;;;5.26;57.27;102207.88;6269320;22;45474;-88
2022/01/15 18:14:11;;;;;;;;;70.00;55.25;;;;;5.37;57.72;102241.38;6245958;22;45665;-88
2022/01/15 18:16:55;;;;;;;;;72.25;56.25;;;;;5.27;57.80;102230.56;6247494;22;45471;-87
2022/01/15 18:19:40;;;;;;;;;69.25;55.00;;;;;5.10;57.71;102223.72;6274900;22;46832;-90
2022/01/15 18:22:28;;;;;;;;;68.25;54.75;;;;;5.19;57.79;102247.63;6276491;22;45284;-88
2022/01/15 18:25:31;;;;;;;;;71.75;57.75;;;;;5.00;57.86;102232.91;6248517;22;45492;-86
2022/01/15 18:27:59;;;;;;;;;69.00;54.75;;;;;4.95;58.00;102247.47;6274345;22;45704;-85
2022/01/15 18:31:16;;;;;;;;;65.50;52.50;;;;;4.86;58.13;102253.19;6246782;22;46564;-88
2022/01/15 18:33:53;;;;;;;;;;;;;;;;;;;;;
2022/01/15 18:36:27;;;;;;;;;64.50;52.25;;;;;4.54;58.97;102264.75;6273071;22;68754;-86
2022/01/15 18:39:16;;;;;;;;;69.50;53.75;;;;;4.35;59.14;102243.91;6246104;22;45901;-87
2022/01/15 18:41:41;;;;;;;;;67.50;51.75;;;;;4.30;59.09;102261.91;6248846;22;45528;-86
2022/01/15 18:44:12;;;;;;;;;70.50;53.00;;;;;4.13;60.01;102242.91;6277981;22;45398;-88
2022/01/15 18:46:40;;;;;;;;;74.25;56.25;;;;;4.19;59.70;102284.00;6272123;22;45775;-88
2022/01/15 18:52:05;;;;;;;;;69.50;54.00;;;;;3.95;60.32;102276.78;6274163;22;46384;-87
2022/01/15 18:54:37;;;;;;;;;70.00;54.75;;;;;3.77;60.55;102257.69;6273716;22;45424;-91
2022/01/15 18:57:25;;;;;;;;;69.75;52.75;;;;;3.86;61.01;102293.72;6275106;22;45419;-85
2022/01/15 19:00:02;;;;;;;;;;;;;;;;;;;;;
2022/01/15 19:32:48;;;;;;;;;60.25;51.75;;;;;3.18;63.79;102409.13;6263024;22;46196;-89
2022/01/15 19:35:29;;;;;;;;;61.25;49.00;;;;;3.04;64.42;102390.19;6252659;22;45395;-88
2022/01/15 19:38:27;;;;;;;;;;;;;;;;;;;;;
2022/01/15 19:41:05;;;;;;;;;61.25;47.50;;;;;3.19;63.95;102330.28;6281471;22;72940;-91
2022/01/15 19:44:09;;;;;;;;;71.25;53.25;;;;;3.01;63.83;102266.03;6254238;22;45430;-90
2022/01/15 19:46:42;;;;;;;;;67.50;52.50;;;;;3.20;63.84;102253.97;6243698;22;45291;-87
2022/01/15 19:49:16;;;;;;;;;62.75;50.00;;;;;3.19;63.51;102234.88;6263314;22;46846;-87
2022/01/15 19:51:49;;;;;;;;;64.00;48.25;;;;;3.03;63.83;102194.19;6260388;22;44702;-89
2022/01/15 19:54:29;;;;;;;;;71.50;52.25;;;;;3.18;63.71;102237.38;6260061;22;45223;-90
2022/01/15 19:57:03;;;;;;;;;62.75;49.50;;;;;3.09;63.11;102256.91;6253607;22;45478;-91
2022/01/15 19:59:41;;;;;;;;;52.25;41.50;;;;;2.84;63.38;102233.97;6247404;22;47992;-87
2022/01/15 20:02:26;;;;;;;;;;;;;;;;;;;;;
2022/01/15 20:05:31;;;;;;;;;;;;;;;;;;;;;
2022/01/15 20:08:06;;;;;;;;;56.25;45.50;;;;;2.84;63.44;102301.59;6276362;22;73366;-85
2022/01/15 20:10:53;;;;;;;;;;;;;;;;;;;;;
2022/01/15 20:13:19;;;;;;;;;65.25;52.00;;;;;2.62;64.04;102283.06;6273978;22;71701;-86
2022/01/15 20:15:47;;;;;;;;;56.50;45.25;;;;;2.77;63.87;102324.59;6246918;22;45445;-84
2022/01/15 20:18:17;;;;;;;;;61.25;48.75;;;;;2.69;63.99;102261.78;6275375;22;45454;-84
2022/01/15 20:20:52;;;;;;;;;60.25;47.75;;;;;2.74;63.92;102267.22;6275590;22;45304;-84
2022/01/15 20:23:18;;;;;;;;;66.00;49.75;;;;;2.74;63.80;102270.72;6275799;22;45397;-83
2022/01/15 20:26:06;;;;;;;;;;;;;;;;;;;;;
2022/01/15 20:28:45;;;;;;;;;63.00;50.75;;;;;2.66;63.53;102290.22;6275738;22;72050;-85
2022/01/15 20:31:16;;;;;;;;;67.75;50.25;;;;;2.73;64.19;102289.72;6274977;22;45475;-85
2022/01/15 20:33:57;;;;;;;;;61.25;48.50;;;;;2.74;64.29;102314.03;6247517;22;45583;-86
2022/01/15 20:36:44;;;;;;;;;;;;;;;;;;;;;
2022/01/15 20:39:23;;;;;;;;;;;;;;;;;;;;;
2022/01/15 20:42:13;;;;;;;;;59.50;47.50;;;;;2.66;64.65;102324.00;6273525;22;74455;-86
2022/01/15 20:44:50;;;;;;;;;62.50;44.50;;;;;2.56;64.42;102327.81;6274249;22;45375;-85
2022/01/15 20:47:31;;;;;;;;;;;;;;;;;;;;;
2022/01/15 20:50:00;;;;;;;;;70.75;53.75;;;;;2.53;65.19;102278.25;6274280;22;73341;-84
2022/01/15 20:52:40;;;;;;;;;62.25;52.50;;;;;2.51;65.41;102286.78;6248474;22;47655;-86
2022/01/15 20:55:45;;;;;;;;;65.50;46.75;;;;;2.50;65.14;102308.41;6245429;22;46085;-85
2022/01/15 21:01:53;;;;;;;;;61.75;48.75;;;;;2.37;65.39;102286.03;6134456;23;45532;-86
2022/01/15 21:04:32;;;;;;;;;62.75;46.25;;;;;2.56;65.39;102311.31;6125165;23;47137;-84
2022/01/15 21:07:07;;;;;;;;;67.75;51.50;;;;;2.58;65.39;102318.38;6272678;22;45731;-86
2022/01/15 21:09:48;;;;;;;;;;;;;;;;;;;;;
2022/01/15 21:12:15;;;;;;;;;54.50;45.00;;;;;2.42;65.50;102326.16;6271673;22;72007;-86
2022/01/15 21:14:45;;;;;;;;;65.50;51.25;;;;;2.41;65.90;102327.00;6246311;22;47083;-86
2022/01/15 21:20:04;;;;;;;;;62.25;48.50;;;;;2.52;65.63;102335.38;6275049;22;45563;-85
2022/01/15 21:22:40;;;;;;;;;64.00;45.75;;;;;2.40;65.82;102323.47;6248590;22;45622;-82
2022/01/15 21:25:25;;;;;;;;;53.25;40.50;;;;;2.55;65.44;102339.03;6275810;22;46358;-84
2022/01/15 21:31:48;;;;;;;;;52.25;43.25;;;;;2.50;65.50;102329.19;6135377;23;45774;-82
2022/01/15 21:34:35;;;;;;;;;48.00;40.75;;;;;2.42;65.09;102318.38;6247301;22;45838;-82
2022/01/15 21:37:33;;;;;;;;;52.75;43.00;;;;;2.43;65.44;102331.47;6247366;22;46441;-82
2022/01/15 21:40:03;;;;;;;;;52.50;41.25;;;;;2.37;65.84;102341.50;6230979;22;45407;-81
